createdAt,value
2022-12-08T00:02:00.980Z,2.46
2022-12-08T00:04:28.530Z,2.45
2022-12-08T00:06:55.796Z,2.46
2022-12-08T00:09:30.008Z,2.42
2022-12-08T00:12:03.733Z,2.39
2022-12-08T00:14:32.892Z,2.42
2022-12-08T00:17:01.651Z,2.41
2022-12-08T00:19:29.369Z,2.42
2022-12-08T00:21:57.432Z,2.39
2022-12-08T00:24:29.381Z,2.35
2022-12-08T00:26:56.981Z,2.37
2022-12-08T00:29:25.759Z,2.35
2022-12-08T00:31:53.705Z,2.32
2022-12-08T00:34:21.072Z,2.32
2022-12-08T00:36:48.419Z,2.36
2022-12-08T00:39:16.785Z,2.39
2022-12-08T00:41:44.871Z,2.38
2022-12-08T00:44:14.274Z,2.33
2022-12-08T00:46:42.959Z,2.31
2022-12-08T00:49:10.502Z,2.32
2022-12-08T00:51:38.160Z,2.28
2022-12-08T00:54:06.458Z,2.28
2022-12-08T00:56:34.471Z,2.33
2022-12-08T00:59:03.099Z,2.38
2022-12-08T01:01:31.251Z,2.35
2022-12-08T01:04:03.091Z,2.35
2022-12-08T01:06:32.090Z,2.45
2022-12-08T01:08:59.307Z,2.44
2022-12-08T01:11:26.708Z,2.43
2022-12-08T01:13:54.296Z,2.43
2022-12-08T01:16:23.085Z,2.47
2022-12-08T01:18:51.082Z,2.52
2022-12-08T01:21:20.119Z,2.55
2022-12-08T01:23:47.320Z,2.61
2022-12-08T01:26:16.418Z,2.61
2022-12-08T01:28:44.247Z,2.60
2022-12-08T01:31:13.777Z,2.63
2022-12-08T01:33:41.530Z,2.71
2022-12-08T01:36:17.884Z,2.69
2022-12-08T01:38:46.601Z,2.74
2022-12-08T01:41:15.256Z,2.74
2022-12-08T01:44:00.768Z,2.74
2022-12-08T01:46:29.815Z,2.78
2022-12-08T01:49:02.439Z,2.80
2022-12-08T01:51:33.305Z,2.80
2022-12-08T01:54:04.827Z,2.82
2022-12-08T01:56:41.400Z,2.88
2022-12-08T01:59:10.826Z,2.87
2022-12-08T02:01:38.474Z,2.93
2022-12-08T02:04:05.755Z,2.94
2022-12-08T02:06:36.970Z,2.88
2022-12-08T02:09:05.881Z,2.96
2022-12-08T02:11:33.176Z,2.87
2022-12-08T02:14:03.247Z,2.88
2022-12-08T02:16:38.215Z,2.85
2022-12-08T02:19:48.750Z,2.86
2022-12-08T02:22:25.607Z,2.83
2022-12-08T02:25:02.654Z,2.85
2022-12-08T02:27:46.564Z,2.85
2022-12-08T02:30:24.192Z,2.90
2022-12-08T02:33:29.241Z,2.91
2022-12-08T02:36:04.900Z,2.92
2022-12-08T02:38:44.206Z,2.97
2022-12-08T02:41:21.863Z,2.92
2022-12-08T02:43:57.716Z,2.91
2022-12-08T02:46:32.494Z,2.99
2022-12-08T02:49:00.905Z,2.96
2022-12-08T02:51:29.543Z,3.00
2022-12-08T02:53:57.536Z,2.95
2022-12-08T02:56:45.803Z,2.96
2022-12-08T02:59:34.406Z,2.97
2022-12-08T03:02:19.497Z,2.97
2022-12-08T03:04:58.171Z,2.96
2022-12-08T03:07:35.292Z,2.98
2022-12-08T03:10:08.408Z,2.99
2022-12-08T03:12:40.988Z,2.98
2022-12-08T03:15:11.819Z,2.98
2022-12-08T03:17:44.137Z,2.97
2022-12-08T03:20:17.478Z,3.00
2022-12-08T03:22:49.303Z,2.98
2022-12-08T03:25:20.921Z,3.02
2022-12-08T03:27:48.924Z,3.05
2022-12-08T03:30:16.586Z,3.05
2022-12-08T03:32:50.003Z,2.99
2022-12-08T03:35:22.587Z,3.03
2022-12-08T03:37:51.278Z,3.01
2022-12-08T03:40:20.650Z,3.02
2022-12-08T03:42:47.933Z,3.00
2022-12-08T03:45:15.558Z,3.02
2022-12-08T03:47:42.819Z,3.01
2022-12-08T03:50:11.518Z,2.99
2022-12-08T03:52:38.789Z,2.95
2022-12-08T03:55:08.188Z,2.93
2022-12-08T03:57:35.691Z,2.93
2022-12-08T04:00:04.431Z,2.89
2022-12-08T04:02:32.437Z,2.94
2022-12-08T04:04:59.828Z,2.89
2022-12-08T04:07:27.191Z,2.87
2022-12-08T04:09:54.416Z,2.86
2022-12-08T04:12:23.095Z,2.86
2022-12-08T04:14:50.310Z,2.78
2022-12-08T04:17:17.601Z,2.81
2022-12-08T04:19:44.865Z,2.77
2022-12-08T04:22:12.138Z,2.77
2022-12-08T04:24:39.397Z,2.84
2022-12-08T04:27:06.732Z,2.83
2022-12-08T04:29:35.420Z,2.80
2022-12-08T04:32:02.738Z,2.78
2022-12-08T04:34:29.989Z,2.83
2022-12-08T04:36:57.281Z,2.88
2022-12-08T04:39:24.545Z,2.83
2022-12-08T04:41:51.865Z,2.89
2022-12-08T04:44:19.232Z,2.88
2022-12-08T04:46:47.956Z,2.84
2022-12-08T04:49:15.192Z,2.90
2022-12-08T04:51:42.496Z,2.89
2022-12-08T04:54:09.763Z,2.89
2022-12-08T04:56:37.311Z,2.89
2022-12-08T04:59:04.714Z,2.88
2022-12-08T05:01:32.170Z,2.92
2022-12-08T05:04:01.034Z,2.91
2022-12-08T05:06:28.379Z,2.91
2022-12-08T05:08:55.685Z,2.86
2022-12-08T05:11:23.011Z,2.93
2022-12-08T05:13:50.284Z,2.89
2022-12-08T05:16:17.645Z,2.90
2022-12-08T05:18:44.974Z,2.87
2022-12-08T05:21:13.816Z,2.87
2022-12-08T05:23:41.106Z,2.88
2022-12-08T05:26:08.547Z,2.95
2022-12-08T05:28:43.934Z,2.88
2022-12-08T05:31:12.643Z,2.92
2022-12-08T05:33:40.443Z,2.87
2022-12-08T05:36:08.428Z,2.89
2022-12-08T05:38:37.041Z,2.96
2022-12-08T05:41:05.818Z,2.90
2022-12-08T05:43:33.304Z,2.96
2022-12-08T05:46:00.970Z,2.93
2022-12-08T05:48:28.273Z,2.96
2022-12-08T05:50:55.879Z,2.94
2022-12-08T05:53:23.274Z,2.96
2022-12-08T05:55:51.987Z,2.96
2022-12-08T05:58:21.689Z,2.97
2022-12-08T06:00:50.089Z,2.97
2022-12-08T06:03:18.971Z,2.98
2022-12-08T06:05:47.443Z,2.96
2022-12-08T06:08:14.754Z,2.97
2022-12-08T06:10:44.257Z,2.97
2022-12-08T06:13:13.166Z,3.02
2022-12-08T06:15:41.155Z,2.98
2022-12-08T06:18:10.438Z,3.00
2022-12-08T06:20:37.799Z,2.97
2022-12-08T06:23:04.996Z,3.01
2022-12-08T06:25:32.385Z,2.96
2022-12-08T06:27:59.678Z,3.01
2022-12-08T06:30:28.295Z,3.01
2022-12-08T06:32:55.706Z,2.95
2022-12-08T06:35:22.998Z,2.95
2022-12-08T06:37:50.233Z,2.96
2022-12-08T06:40:18.034Z,2.92
2022-12-08T06:42:45.554Z,2.91
2022-12-08T06:45:14.195Z,2.94
2022-12-08T06:47:42.889Z,2.95
2022-12-08T06:50:12.806Z,2.88
2022-12-08T06:52:49.299Z,2.89
2022-12-08T06:55:50.795Z,2.85
2022-12-08T06:58:11.039Z,2.84
2022-12-08T07:00:38.377Z,2.81
2022-12-08T07:03:09.413Z,2.79
2022-12-08T07:05:37.517Z,2.77
2022-12-08T07:08:06.557Z,2.76
2022-12-08T07:10:34.447Z,2.79
2022-12-08T07:13:02.104Z,2.82
2022-12-08T07:15:29.496Z,2.86
2022-12-08T07:18:00.127Z,2.87
2022-12-08T07:20:29.478Z,2.83
2022-12-08T07:22:56.871Z,2.84
2022-12-08T07:25:24.134Z,2.89
2022-12-08T07:27:51.483Z,2.91
2022-12-08T07:30:19.120Z,2.87
2022-12-08T07:32:46.755Z,2.81
2022-12-08T07:35:14.110Z,2.74
2022-12-08T07:37:42.984Z,2.73
2022-12-08T07:40:11.336Z,2.72
2022-12-08T07:42:38.504Z,2.73
2022-12-08T07:45:07.025Z,2.69
2022-12-08T07:47:34.247Z,2.66
2022-12-08T07:50:02.025Z,2.63
2022-12-08T07:52:29.382Z,2.57
2022-12-08T07:54:58.152Z,2.55
2022-12-08T07:57:25.419Z,2.56
2022-12-08T07:59:52.762Z,2.53
2022-12-08T08:02:25.360Z,2.49
2022-12-08T08:04:53.630Z,2.48
2022-12-08T08:07:21.045Z,2.51
2022-12-08T08:09:48.363Z,2.49
2022-12-08T08:12:33.082Z,2.51
2022-12-08T08:15:01.656Z,2.56
2022-12-08T08:17:29.805Z,2.60
2022-12-08T08:19:57.566Z,2.65
2022-12-08T08:22:25.214Z,2.71
2022-12-08T08:24:52.584Z,2.68
2022-12-08T08:27:21.194Z,2.70
2022-12-08T08:29:48.511Z,2.65
2022-12-08T08:32:15.795Z,2.70
2022-12-08T08:34:43.203Z,2.70
2022-12-08T08:37:10.712Z,2.72
2022-12-08T08:39:38.904Z,2.76
2022-12-08T08:42:06.238Z,2.77
2022-12-08T08:44:35.443Z,2.78
2022-12-08T08:47:02.737Z,2.78
2022-12-08T08:49:30.019Z,2.78
2022-12-08T08:51:57.316Z,2.75
2022-12-08T08:54:28.229Z,2.77
2022-12-08T08:56:56.695Z,2.81
2022-12-08T08:59:24.143Z,2.74
2022-12-08T09:01:53.458Z,2.75
2022-12-08T09:04:21.170Z,2.79
2022-12-08T09:06:48.775Z,2.83
2022-12-08T09:09:17.213Z,2.85
2022-12-08T09:11:44.792Z,2.83
2022-12-08T09:14:12.670Z,2.79
2022-12-08T09:16:42.326Z,2.82
2022-12-08T09:19:12.864Z,2.84
2022-12-08T09:21:40.216Z,2.92
2022-12-08T09:24:07.896Z,2.93
2022-12-08T09:26:35.122Z,2.87
2022-12-08T09:29:02.434Z,2.95
2022-12-08T09:31:29.711Z,2.84
2022-12-08T09:33:57.051Z,2.88
2022-12-08T09:36:25.696Z,2.83
2022-12-08T09:38:53.028Z,2.82
2022-12-08T09:41:36.499Z,2.79
2022-12-08T09:44:36.778Z,2.86
2022-12-08T09:47:09.007Z,2.84
2022-12-08T09:49:39.753Z,2.93
2022-12-08T09:52:19.615Z,3.02
2022-12-08T09:54:47.241Z,3.12
2022-12-08T09:57:19.027Z,3.16
2022-12-08T09:59:52.717Z,3.07
2022-12-08T10:02:24.237Z,3.10
2022-12-08T10:04:54.154Z,3.07
2022-12-08T10:07:37.515Z,2.95
2022-12-08T10:10:14.023Z,2.88
2022-12-08T10:12:53.949Z,2.86
2022-12-08T10:15:40.175Z,3.04
2022-12-08T10:18:15.609Z,3.12
2022-12-08T10:20:45.315Z,3.24
2022-12-08T10:23:24.724Z,3.37
2022-12-08T10:26:00.593Z,3.29
2022-12-08T10:28:28.243Z,3.48
2022-12-08T10:30:55.555Z,3.61
2022-12-08T10:33:23.740Z,3.68
2022-12-08T10:35:53.355Z,3.75
2022-12-08T10:38:26.692Z,3.81
2022-12-08T10:41:01.452Z,4.19
2022-12-08T10:43:28.798Z,3.95
2022-12-08T10:46:08.273Z,3.72
2022-12-08T10:48:35.622Z,3.63
2022-12-08T10:51:02.937Z,3.64
2022-12-08T10:53:33.503Z,3.63
2022-12-08T10:56:14.810Z,3.84
2022-12-08T10:58:44.728Z,3.75
2022-12-08T11:01:14.921Z,3.73
2022-12-08T11:03:47.591Z,3.70
2022-12-08T11:06:18.161Z,3.77
2022-12-08T11:08:50.462Z,3.73
2022-12-08T11:11:21.099Z,4.10
2022-12-08T11:13:51.909Z,4.28
2022-12-08T11:16:20.018Z,4.11
2022-12-08T11:18:56.135Z,4.76
2022-12-08T11:21:34.476Z,5.21
2022-12-08T11:24:21.642Z,5.11
2022-12-08T11:26:52.810Z,5.69
2022-12-08T11:29:20.526Z,5.29
2022-12-08T11:31:52.375Z,4.77
2022-12-08T11:34:24.512Z,4.89
2022-12-08T11:36:52.951Z,4.95
2022-12-08T11:39:22.192Z,5.52
2022-12-08T11:41:53.628Z,5.89
2022-12-08T11:44:28.384Z,6.28
2022-12-08T11:46:59.496Z,7.14
2022-12-08T11:49:34.326Z,7.26
2022-12-08T11:52:05.729Z,7.63
2022-12-08T11:54:40.875Z,7.42
2022-12-08T11:57:12.636Z,7.06
2022-12-08T11:59:42.942Z,6.58
2022-12-08T12:02:15.852Z,6.81
2022-12-08T12:04:50.466Z,5.79
2022-12-08T12:07:47.291Z,5.52
2022-12-08T12:10:32.390Z,5.33
2022-12-08T12:13:14.479Z,5.45
2022-12-08T12:16:23.066Z,5.44
2022-12-08T12:18:53.688Z,6.49
2022-12-08T12:21:24.941Z,7.16
2022-12-08T12:23:55.536Z,7.38
2022-12-08T12:26:27.530Z,7.49
2022-12-08T12:28:58.833Z,7.36
2022-12-08T12:31:30.777Z,7.64
2022-12-08T12:34:07.509Z,8.07
2022-12-08T12:36:47.472Z,8.45
2022-12-08T12:39:17.881Z,7.47
2022-12-08T12:41:50.653Z,8.10
2022-12-08T12:44:38.076Z,8.50
2022-12-08T12:47:11.024Z,8.30
2022-12-08T12:50:04.373Z,8.35
2022-12-08T12:52:42.668Z,7.86
2022-12-08T12:55:50.251Z,7.67
2022-12-08T12:58:36.592Z,7.61
2022-12-08T13:01:55.714Z,7.75
2022-12-08T13:04:35.724Z,8.41
2022-12-08T13:07:03.656Z,7.72
2022-12-08T13:09:35.308Z,8.03
2022-12-08T13:12:09.663Z,7.48
2022-12-08T13:14:45.913Z,6.88
2022-12-08T13:17:17.487Z,6.38
2022-12-08T13:19:51.543Z,5.67
2022-12-08T13:23:00.822Z,5.19
2022-12-08T13:26:18.930Z,5.77
2022-12-08T13:29:17.100Z,5.65
2022-12-08T13:31:50.951Z,5.80
2022-12-08T13:34:29.106Z,5.94
2022-12-08T13:37:08.240Z,5.44
2022-12-08T13:39:44.523Z,5.59
2022-12-08T13:42:19.620Z,5.68
2022-12-08T13:45:19.834Z,5.39
2022-12-08T13:48:20.458Z,5.23
2022-12-08T13:57:00.785Z,4.93
2022-12-08T13:59:23.152Z,4.96
2022-12-08T14:01:51.554Z,5.11
2022-12-08T14:05:09.290Z,5.24
2022-12-08T14:07:11.904Z,5.40
2022-12-08T14:09:40.357Z,5.85
2022-12-08T14:12:15.656Z,6.37
2022-12-08T14:15:02.410Z,6.54
2022-12-08T14:17:31.876Z,6.19
2022-12-08T14:20:03.306Z,5.91
2022-12-08T14:22:35.845Z,5.47
2022-12-08T14:25:05.821Z,5.44
2022-12-08T14:27:35.985Z,5.21
2022-12-08T14:30:06.594Z,4.89
2022-12-08T14:32:38.184Z,4.96
2022-12-08T14:35:19.736Z,4.98
2022-12-08T14:37:48.687Z,5.15
2022-12-08T14:40:23.460Z,5.01
2022-12-08T14:42:53.554Z,4.67
2022-12-08T14:45:21.348Z,4.63
2022-12-08T14:47:48.719Z,4.54
2022-12-08T14:50:42.477Z,4.37
2022-12-08T14:53:15.974Z,4.17
2022-12-08T14:55:45.769Z,4.13
2022-12-08T14:58:19.150Z,4.04
2022-12-08T15:00:47.953Z,3.95
2022-12-08T15:03:16.765Z,3.85
2022-12-08T15:05:45.919Z,3.81
2022-12-08T15:08:13.221Z,3.73
2022-12-08T15:10:40.648Z,3.69
2022-12-08T15:13:21.762Z,3.60
2022-12-08T15:15:51.127Z,3.51
2022-12-08T15:18:21.008Z,3.39
2022-12-08T15:20:53.284Z,3.36
2022-12-08T15:23:25.424Z,3.29
2022-12-08T15:25:53.616Z,3.27
2022-12-08T15:28:28.124Z,3.22
2022-12-08T15:30:57.527Z,3.08
2022-12-08T15:33:25.059Z,2.99
2022-12-08T15:35:57.054Z,2.95
2022-12-08T15:38:26.925Z,2.94
2022-12-08T15:40:55.245Z,2.92
2022-12-08T15:43:23.055Z,2.85
2022-12-08T15:45:59.106Z,2.76
2022-12-08T15:48:28.561Z,2.71
2022-12-08T15:50:57.602Z,2.78
2022-12-08T15:53:25.171Z,2.61
2022-12-08T15:56:25.753Z,2.62
2022-12-08T15:58:56.951Z,2.52
2022-12-08T16:01:25.357Z,2.57
2022-12-08T16:04:36.910Z,2.50
2022-12-08T16:07:19.767Z,2.50
2022-12-08T16:09:33.457Z,2.43
2022-12-08T16:12:09.926Z,2.44
2022-12-08T16:17:26.480Z,2.29
2022-12-08T16:19:53.807Z,2.25
2022-12-08T16:25:21.030Z,2.13
2022-12-08T16:28:01.219Z,2.14
2022-12-08T16:30:30.648Z,2.15
2022-12-08T16:32:57.899Z,2.09
2022-12-08T16:35:25.223Z,2.10
2022-12-08T16:37:53.831Z,2.09
2022-12-08T16:40:21.414Z,2.06
2022-12-08T16:42:48.935Z,1.98
2022-12-08T16:45:18.208Z,2.01
2022-12-08T16:47:47.302Z,1.99
2022-12-08T16:50:17.112Z,2.01
2022-12-08T16:52:44.857Z,1.97
2022-12-08T16:55:15.896Z,2.00
2022-12-08T16:57:43.804Z,1.91
2022-12-08T17:00:14.692Z,1.83
2022-12-08T17:02:42.514Z,1.96
2022-12-08T17:05:11.514Z,2.01
2022-12-08T17:07:38.872Z,2.05
2022-12-08T17:10:08.650Z,2.06
2022-12-08T17:12:37.376Z,2.07
2022-12-08T17:15:06.798Z,2.13
2022-12-08T17:17:34.797Z,2.20
2022-12-08T17:20:02.543Z,2.15
2022-12-08T17:22:30.116Z,2.28
2022-12-08T17:24:57.495Z,2.27
2022-12-08T17:27:25.076Z,2.22
2022-12-08T17:29:53.792Z,2.21
2022-12-08T17:32:21.302Z,2.18
2022-12-08T17:34:49.026Z,2.10
2022-12-08T17:37:16.969Z,2.09
2022-12-08T17:39:44.429Z,2.06
2022-12-08T17:42:11.779Z,2.01
2022-12-08T17:44:39.121Z,1.91
2022-12-08T17:47:07.858Z,1.84
2022-12-08T17:49:35.203Z,1.86
2022-12-08T17:52:05.650Z,1.85
2022-12-08T17:54:33.038Z,1.82
2022-12-08T17:57:00.361Z,1.82
2022-12-08T17:59:28.637Z,1.86
2022-12-08T18:01:56.833Z,1.83
2022-12-08T18:04:26.426Z,1.80
2022-12-08T18:06:53.863Z,1.70
2022-12-08T18:09:21.205Z,1.70
2022-12-08T18:11:48.664Z,1.68
2022-12-08T18:14:16.398Z,1.57
2022-12-08T18:16:45.776Z,1.57
2022-12-08T18:19:14.322Z,1.59
2022-12-08T18:21:43.109Z,1.55
2022-12-08T18:24:16.969Z,1.51
2022-12-08T18:26:44.413Z,1.52
2022-12-08T18:29:11.704Z,1.40
2022-12-08T18:31:38.985Z,1.42
2022-12-08T18:34:06.247Z,1.31
2022-12-08T18:36:34.025Z,1.30
2022-12-08T18:39:08.764Z,1.24
2022-12-08T18:41:37.988Z,1.34
2022-12-08T18:44:05.202Z,1.23
2022-12-08T18:46:32.639Z,1.19
2022-12-08T18:48:59.989Z,1.18
2022-12-08T18:51:27.820Z,1.13
2022-12-08T18:53:55.089Z,1.34
2022-12-08T18:56:26.425Z,1.19
2022-12-08T18:58:58.482Z,1.09
2022-12-08T19:01:28.908Z,1.08
2022-12-08T19:04:26.805Z,1.05
2022-12-08T19:06:45.349Z,1.03
2022-12-08T19:09:12.922Z,1.03
2022-12-08T19:11:42.335Z,1.11
2022-12-08T19:14:10.391Z,1.00
2022-12-08T19:16:38.115Z,1.05
2022-12-08T19:19:05.739Z,1.01
2022-12-08T19:21:33.437Z,1.14
2022-12-08T19:24:00.738Z,1.16
2022-12-08T19:26:28.608Z,1.22
2022-12-08T19:28:57.679Z,1.18
2022-12-08T19:31:25.195Z,1.14
2022-12-08T19:33:52.613Z,1.18
2022-12-08T19:36:21.923Z,1.24
2022-12-08T19:38:49.792Z,1.21
2022-12-08T19:41:17.296Z,1.28
2022-12-08T19:43:44.650Z,1.45
2022-12-08T19:46:13.976Z,1.40
2022-12-08T19:48:41.338Z,1.44
2022-12-08T19:51:09.260Z,1.37
2022-12-08T19:53:37.764Z,1.46
2022-12-08T19:56:05.862Z,1.39
2022-12-08T19:58:33.240Z,1.41
2022-12-08T20:01:00.549Z,1.40
2022-12-08T20:03:29.222Z,1.43
2022-12-08T20:05:59.759Z,1.45
2022-12-08T20:08:27.229Z,1.53
2022-12-08T20:10:54.629Z,1.59
2022-12-08T20:13:21.928Z,1.58
2022-12-08T20:15:49.815Z,1.67
2022-12-08T20:18:17.596Z,1.65
2022-12-08T20:20:47.368Z,1.65
2022-12-08T20:23:15.678Z,1.69
2022-12-08T20:25:45.516Z,1.77
2022-12-08T20:28:13.274Z,1.73
2022-12-08T20:30:42.373Z,1.80
2022-12-08T20:33:12.379Z,1.68
2022-12-08T20:35:39.781Z,1.70
2022-12-08T20:38:08.698Z,1.72
2022-12-08T20:40:36.001Z,1.74
2022-12-08T20:43:03.541Z,1.70
2022-12-08T20:45:30.963Z,1.68
2022-12-08T20:47:58.256Z,1.84
2022-12-08T20:50:25.812Z,1.85
2022-12-08T20:52:54.024Z,1.78
2022-12-08T20:55:22.802Z,1.85
2022-12-08T20:57:50.164Z,1.77
2022-12-08T21:00:18.027Z,1.76
2022-12-08T21:02:49.770Z,1.79
2022-12-08T21:05:21.059Z,1.82
2022-12-08T21:07:48.581Z,1.81
2022-12-08T21:10:16.179Z,1.82
2022-12-08T21:12:44.882Z,1.75
2022-12-08T21:15:12.375Z,1.81
2022-12-08T21:17:39.954Z,1.67
2022-12-08T21:20:08.555Z,1.78
2022-12-08T21:22:36.182Z,1.81
2022-12-08T21:25:03.856Z,1.77
2022-12-08T21:27:31.410Z,1.80
2022-12-08T21:30:00.445Z,1.85
2022-12-08T21:32:30.702Z,1.86
2022-12-08T21:34:58.637Z,1.83
2022-12-08T21:37:26.148Z,1.82
2022-12-08T21:39:53.507Z,1.86
2022-12-08T21:42:22.851Z,1.88
2022-12-08T21:44:50.882Z,1.90
2022-12-08T21:47:19.669Z,1.86
2022-12-08T21:49:47.152Z,1.89
2022-12-08T21:52:14.586Z,1.91
2022-12-08T21:54:42.198Z,1.81
2022-12-08T21:57:09.625Z,1.80
2022-12-08T21:59:37.142Z,1.90
2022-12-08T22:02:04.849Z,1.80
2022-12-08T22:04:33.841Z,1.87
2022-12-08T22:07:01.270Z,1.83
2022-12-08T22:09:28.700Z,1.75
2022-12-08T22:11:56.162Z,1.86
2022-12-08T22:14:23.728Z,1.84
2022-12-08T22:16:54.422Z,1.78
2022-12-08T22:19:22.203Z,1.85
2022-12-08T22:21:51.005Z,1.92
2022-12-08T22:24:18.313Z,1.82
2022-12-08T22:26:45.709Z,1.88
2022-12-08T22:29:12.985Z,1.82
2022-12-08T22:31:40.454Z,1.77
2022-12-08T22:34:08.091Z,1.70
2022-12-08T22:36:35.398Z,1.66
2022-12-08T22:39:04.739Z,1.63
2022-12-08T22:41:32.034Z,1.73
2022-12-08T22:43:59.572Z,1.72
2022-12-08T22:46:27.590Z,1.67
2022-12-08T22:48:55.334Z,1.67
2022-12-08T22:51:22.982Z,1.76
2022-12-08T22:53:50.842Z,1.77
2022-12-08T22:56:19.772Z,1.82
2022-12-08T22:58:47.476Z,1.88
2022-12-08T23:01:23.038Z,1.81
2022-12-08T23:03:50.937Z,1.84
2022-12-08T23:06:18.558Z,1.87
2022-12-08T23:08:46.202Z,1.92
2022-12-08T23:11:13.634Z,1.94
2022-12-08T23:13:42.752Z,1.93
2022-12-08T23:16:11.742Z,1.94
2022-12-08T23:18:42.218Z,1.90
2022-12-08T23:21:12.621Z,1.99
2022-12-08T23:23:40.271Z,1.94
2022-12-08T23:26:15.629Z,1.95
2022-12-08T23:28:44.532Z,1.90
2022-12-08T23:31:11.880Z,1.87
2022-12-08T23:33:39.242Z,1.82
2022-12-08T23:36:06.956Z,1.88
2022-12-08T23:38:34.478Z,1.83
2022-12-08T23:41:02.048Z,1.86
2022-12-08T23:43:29.531Z,1.96
2022-12-08T23:45:58.307Z,1.89
2022-12-08T23:48:26.102Z,1.89
2022-12-08T23:50:54.255Z,1.88
2022-12-08T23:53:21.656Z,1.96
2022-12-08T23:55:48.971Z,1.87
2022-12-08T23:58:16.321Z,1.81
